Time;durP1;ratioP1;P1;durP2;ratioP2;P2;SDS_P1;SDS_P2;PMS_P1;PMS_P2;Temp;Humidity;BMP_temperature;BMP_pressure;BME280_temperature;BME280_humidity;BME280_pressure;Samples;Min_cycle;Max_cycle;Signal;HPM_P1;HPM_P2
2024/03/31 00:02:11;;;;;;;2.53;2.17;;;9.00;99.90;;;;;;5070292;28;20534;-70
2024/03/31 00:04:36;;;;;;;3.07;2.77;;;9.00;99.90;;;;;;5070726;28;20416;-70
2024/03/31 00:07:03;;;;;;;3.00;2.50;;;9.00;99.90;;;;;;5071292;28;20163;-70
2024/03/31 00:09:28;;;;;;;2.57;1.70;;;8.80;99.90;;;;;;5071480;28;20189;-70
2024/03/31 00:11:54;;;;;;;2.00;1.80;;;8.80;99.90;;;;;;5071448;28;20397;-70
2024/03/31 00:14:20;;;;;;;6.43;1.67;;;8.80;99.90;;;;;;5053525;28;20586;-71
2024/03/31 00:16:46;;;;;;;1.63;1.53;;;8.80;99.90;;;;;;5071588;28;20166;-70
2024/03/31 00:19:11;;;;;;;1.63;1.30;;;8.80;99.90;;;;;;5071345;28;20430;-71
2024/03/31 00:21:37;;;;;;;2.10;1.90;;;8.80;99.90;;;;;;5071191;28;20170;-70
2024/03/31 00:24:03;;;;;;;1.40;1.00;;;8.70;99.90;;;;;;5071218;28;20549;-70
2024/03/31 00:26:28;;;;;;;2.03;1.70;;;8.60;99.90;;;;;;5071096;28;20253;-70
2024/03/31 00:28:54;;;;;;;1.77;1.40;;;8.60;99.90;;;;;;5070919;28;20210;-70
2024/03/31 00:31:19;;;;;;;1.90;1.43;;;8.50;99.90;;;;;;5071266;28;20170;-70
2024/03/31 00:33:48;;;;;;;1.60;1.40;;;8.50;99.90;;;;;;5071202;28;20173;-70
2024/03/31 00:36:13;;;;;;;1.30;1.10;;;8.50;99.90;;;;;;5071343;28;20173;-70
2024/03/31 00:38:39;;;;;;;1.93;1.40;;;8.50;99.90;;;;;;5071045;28;20931;-70
2024/03/31 00:41:04;;;;;;;2.43;2.13;;;8.60;99.90;;;;;;5071147;28;20178;-70
2024/03/31 00:43:30;;;;;;;2.03;1.83;;;8.60;99.90;;;;;;5070995;28;20201;-70
2024/03/31 00:45:55;;;;;;;2.17;1.50;;;8.70;99.90;;;;;;5071273;28;20170;-70
2024/03/31 00:48:21;;;;;;;2.00;1.23;;;8.70;99.90;;;;;;5070983;28;20168;-70
2024/03/31 00:50:46;;;;;;;2.20;1.50;;;8.70;99.90;;;;;;5074061;28;20249;-70
2024/03/31 00:53:12;;;;;;;1.90;1.70;;;8.70;99.90;;;;;;5056638;28;20264;-70
2024/03/31 00:55:37;;;;;;;2.50;1.70;;;8.70;99.90;;;;;;5074571;28;20697;-70
2024/03/31 00:58:03;;;;;;;3.07;2.10;;;8.70;99.90;;;;;;5074291;28;20198;-70
2024/03/31 01:00:29;;;;;;;2.13;1.77;;;8.70;99.90;;;;;;5067733;28;20277;-70
2024/03/31 01:02:54;;;;;;;2.50;1.67;;;8.70;99.90;;;;;;5074237;28;20193;-70
2024/03/31 01:05:20;;;;;;;3.37;2.03;;;8.70;99.90;;;;;;5074472;28;20601;-70
2024/03/31 01:07:46;;;;;;;2.13;1.63;;;8.70;99.90;;;;;;5074057;28;20174;-70
2024/03/31 01:10:12;;;;;;;2.97;2.50;;;8.70;99.90;;;;;;5074221;28;20182;-70
2024/03/31 01:12:38;;;;;;;3.90;2.27;;;8.80;99.90;;;;;;5074127;28;20483;-70
2024/03/31 01:15:04;;;;;;;2.60;1.93;;;8.80;99.90;;;;;;5074057;28;20532;-70
2024/03/31 01:17:30;;;;;;;2.40;1.90;;;8.80;99.90;;;;;;5074017;28;20239;-70
2024/03/31 01:19:56;;;;;;;3.30;1.60;;;8.70;99.90;;;;;;5074207;28;20432;-70
2024/03/31 01:22:24;;;;;;;3.60;2.30;;;8.80;99.90;;;;;;5073996;28;20541;-70
2024/03/31 01:24:49;;;;;;;2.20;1.63;;;8.80;99.90;;;;;;5074097;28;20165;-70
2024/03/31 01:27:15;;;;;;;1.70;1.37;;;8.80;99.90;;;;;;5073761;28;20887;-70
2024/03/31 01:29:40;;;;;;;2.33;2.13;;;8.80;99.90;;;;;;5073772;28;20190;-70
2024/03/31 01:32:06;;;;;;;2.20;1.50;;;8.80;99.90;;;;;;5073904;28;20162;-70
2024/03/31 01:34:32;;;;;;;1.30;1.17;;;8.80;99.90;;;;;;5074008;28;20177;-70
2024/03/31 01:36:59;;;;;;;2.53;1.50;;;8.80;99.90;;;;;;5073571;28;20170;-70
2024/03/31 01:39:24;;;;;;;2.47;2.17;;;8.80;99.90;;;;;;5073985;28;20427;-70
2024/03/31 01:41:50;;;;;;;2.73;2.37;;;8.80;99.90;;;;;;5073621;28;20404;-70
2024/03/31 01:44:15;;;;;;;2.30;2.00;;;8.90;99.90;;;;;;5073578;28;20530;-70
2024/03/31 01:46:41;;;;;;;1.50;1.33;;;8.90;99.90;;;;;;5055776;28;20598;-70
2024/03/31 01:49:06;;;;;;;2.57;2.30;;;9.00;99.90;;;;;;5073508;28;20580;-70
2024/03/31 01:51:32;;;;;;;2.60;1.80;;;9.00;99.90;;;;;;5073548;28;20208;-70
2024/03/31 01:53:57;;;;;;;3.10;2.60;;;9.10;99.90;;;;;;5055588;28;20587;-70
2024/03/31 01:56:23;;;;;;;2.43;2.00;;;9.10;99.90;;;;;;5073462;28;20253;-70
2024/03/31 01:58:49;;;;;;;3.97;2.60;;;9.10;99.90;;;;;;5073086;28;20715;-70
2024/03/31 02:01:15;;;;;;;4.60;2.20;;;9.10;99.90;;;;;;5072332;28;20265;-70
2024/03/31 02:03:40;;;;;;;3.30;3.00;;;9.20;99.90;;;;;;5055274;28;20539;-70
2024/03/31 02:06:12;;;;;;;2.77;2.20;;;9.20;99.90;;;;;;5073347;28;20245;-70
2024/03/31 02:08:37;;;;;;;2.63;2.40;;;9.30;99.90;;;;;;5073053;28;20166;-70
2024/03/31 02:11:03;;;;;;;3.50;2.90;;;9.30;99.90;;;;;;5072993;28;20404;-70
2024/03/31 02:13:28;;;;;;;3.63;2.83;;;9.40;99.90;;;;;;5072870;28;20192;-70
2024/03/31 02:15:55;;;;;;;4.57;3.07;;;9.40;99.90;;;;;;5073079;28;20701;-70
2024/03/31 02:18:20;;;;;;;4.23;3.33;;;9.50;99.90;;;;;;5054799;28;20166;-70
2024/03/31 02:20:46;;;;;;;3.43;3.00;;;9.50;99.90;;;;;;5072932;28;20416;-71
2024/03/31 02:23:12;;;;;;;5.30;3.57;;;9.50;99.90;;;;;;5072957;28;20190;-70
2024/03/31 02:25:37;;;;;;;4.10;3.30;;;9.60;99.90;;;;;;5072794;28;20162;-70
2024/03/31 02:28:03;;;;;;;3.70;2.90;;;9.60;99.90;;;;;;5072741;28;20168;-69
2024/03/31 02:30:29;;;;;;;6.50;3.40;;;9.60;99.90;;;;;;5072883;28;20650;-70
2024/03/31 02:32:54;;;;;;;4.97;4.10;;;9.60;99.90;;;;;;5072615;28;20178;-70
2024/03/31 02:35:20;;;;;;;4.57;4.10;;;9.50;99.90;;;;;;5072603;28;20573;-70
2024/03/31 02:37:47;;;;;;;7.53;3.90;;;9.60;99.90;;;;;;5072269;28;20205;-70
2024/03/31 02:40:13;;;;;;;5.00;4.50;;;9.60;99.90;;;;;;5072389;28;20178;-70
2024/03/31 02:42:40;;;;;;;4.90;4.20;;;9.50;99.90;;;;;;5072321;28;20457;-70
2024/03/31 02:45:06;;;;;;;5.10;4.60;;;9.50;99.90;;;;;;5072864;28;20405;-70
2024/03/31 02:47:32;;;;;;;5.13;4.63;;;9.50;99.90;;;;;;5072258;28;20454;-70
2024/03/31 02:49:57;;;;;;;5.30;4.80;;;9.50;99.90;;;;;;5072469;28;20178;-70
2024/03/31 02:52:23;;;;;;;5.30;4.10;;;9.50;99.90;;;;;;5072293;28;20232;-70
2024/03/31 02:54:48;;;;;;;5.17;4.13;;;9.50;99.90;;;;;;5072253;28;20173;-70
2024/03/31 02:57:14;;;;;;;7.63;5.27;;;9.50;99.90;;;;;;5071873;28;20219;-70
2024/03/31 02:59:39;;;;;;;7.30;5.60;;;9.50;99.90;;;;;;5072402;28;20714;-70
2024/03/31 03:02:05;;;;;;;9.83;6.07;;;9.50;99.90;;;;;;5072366;28;20159;-70
2024/03/31 03:04:30;;;;;;;5.50;4.83;;;9.40;99.90;;;;;;5072310;28;20198;-70
2024/03/31 03:06:56;;;;;;;7.97;5.67;;;9.40;99.90;;;;;;5071877;28;20625;-70
2024/03/31 03:09:22;;;;;;;7.67;5.67;;;9.40;99.90;;;;;;5072126;28;20530;-70
2024/03/31 03:11:48;;;;;;;6.87;5.40;;;9.40;99.90;;;;;;5071930;28;20170;-70
2024/03/31 03:14:13;;;;;;;7.47;5.30;;;9.40;99.90;;;;;;5054060;28;20911;-70
2024/03/31 03:16:39;;;;;;;6.10;5.50;;;9.40;99.90;;;;;;5072080;28;20553;-70
2024/03/31 03:19:05;;;;;;;10.07;6.00;;;9.30;99.90;;;;;;5072196;28;20186;-70
2024/03/31 03:21:30;;;;;;;8.43;5.27;;;9.20;99.90;;;;;;5072131;28;20197;-70
2024/03/31 03:23:56;;;;;;;9.63;5.10;;;9.20;99.90;;;;;;5053786;28;20190;-70
2024/03/31 03:26:21;;;;;;;9.63;5.93;;;9.30;99.90;;;;;;5053746;28;20224;-71
2024/03/31 03:28:47;;;;;;;9.70;6.27;;;9.20;99.90;;;;;;5071620;28;20453;-70
2024/03/31 03:31:13;;;;;;;7.80;6.17;;;9.30;99.90;;;;;;5071870;28;20170;-70
2024/03/31 03:33:38;;;;;;;6.60;5.90;;;9.30;99.90;;;;;;5072002;28;20174;-70
2024/03/31 03:36:05;;;;;;;10.73;6.40;;;9.30;99.90;;;;;;5071847;28;20170;-70
2024/03/31 03:38:31;;;;;;;7.67;6.17;;;9.30;99.90;;;;;;5071519;28;20249;-70
2024/03/31 03:40:57;;;;;;;9.20;5.87;;;9.40;99.90;;;;;;5071341;28;20479;-70
2024/03/31 03:43:22;;;;;;;7.10;5.43;;;9.40;99.90;;;;;;5071593;28;20373;-70
2024/03/31 03:45:48;;;;;;;8.07;5.00;;;9.50;99.90;;;;;;5071626;28;20495;-70
2024/03/31 03:48:13;;;;;;;6.40;5.43;;;9.50;99.90;;;;;;5071597;28;20467;-70
2024/03/31 03:50:39;;;;;;;4.73;4.23;;;9.60;99.90;;;;;;5071593;28;20231;-70
2024/03/31 03:53:05;;;;;;;9.40;5.03;;;9.60;99.90;;;;;;5071427;28;20208;-70
2024/03/31 03:55:31;;;;;;;9.57;4.73;;;9.50;99.90;;;;;;5071597;28;20162;-70
2024/03/31 03:57:56;;;;;;;6.63;3.50;;;9.60;99.90;;;;;;5071360;28;20405;-70
2024/03/31 04:00:22;;;;;;;3.63;3.33;;;9.50;99.90;;;;;;5071601;28;20243;-70
2024/03/31 04:02:48;;;;;;;7.20;3.93;;;9.60;99.90;;;;;;5071672;28;20201;-70
2024/03/31 04:05:13;;;;;;;9.60;4.23;;;9.50;99.90;;;;;;5071627;28;20167;-70
2024/03/31 04:07:39;;;;;;;4.37;3.23;;;9.50;99.90;;;;;;5071453;28;20165;-70
2024/03/31 04:10:05;;;;;;;7.90;3.40;;;9.40;99.90;;;;;;5071467;28;20236;-70
2024/03/31 04:12:31;;;;;;;4.77;3.67;;;9.40;99.90;;;;;;5071540;28;20174;-70
2024/03/31 04:14:56;;;;;;;4.30;3.90;;;9.50;99.90;;;;;;5071502;28;20883;-70
2024/03/31 04:17:22;;;;;;;6.93;2.90;;;9.40;99.90;;;;;;5071152;28;20224;-70
2024/03/31 04:19:47;;;;;;;8.87;4.10;;;9.50;99.90;;;;;;5071336;28;20218;-70
2024/03/31 04:22:13;;;;;;;3.73;3.23;;;9.40;99.90;;;;;;5053585;28;20308;-70
2024/03/31 04:24:38;;;;;;;11.40;4.30;;;9.40;99.90;;;;;;5072399;28;20245;-70
2024/03/31 04:27:04;;;;;;;4.60;3.03;;;9.40;99.90;;;;;;5074923;28;20670;-70
2024/03/31 04:29:30;;;;;;;3.27;2.20;;;9.40;99.90;;;;;;5075137;28;20183;-70
2024/03/31 04:31:57;;;;;;;2.80;2.30;;;9.50;99.90;;;;;;5075121;28;20196;-70
2024/03/31 04:34:26;;;;;;;2.63;1.90;;;9.50;99.90;;;;;;5075018;28;20177;-70
2024/03/31 04:36:53;;;;;;;12.47;3.40;;;9.50;99.90;;;;;;5074724;28;20404;-70
2024/03/31 04:39:19;;;;;;;2.77;2.00;;;9.50;99.90;;;;;;5074730;28;20424;-70
2024/03/31 04:41:44;;;;;;;7.83;4.00;;;9.60;99.90;;;;;;5075031;28;20407;-70
2024/03/31 04:44:11;;;;;;;6.47;4.10;;;9.50;99.90;;;;;;5074634;28;20198;-70
2024/03/31 04:46:36;;;;;;;10.93;3.33;;;9.50;99.90;;;;;;5074980;28;20186;-71
2024/03/31 04:49:04;;;;;;;2.80;2.23;;;9.50;99.90;;;;;;5074603;28;20428;-70
2024/03/31 04:51:30;;;;;;;3.40;2.80;;;9.60;99.90;;;;;;5074634;28;20261;-70
2024/03/31 04:53:56;;;;;;;4.80;2.73;;;9.60;99.90;;;;;;5074534;28;20484;-70
2024/03/31 04:56:21;;;;;;;3.63;2.17;;;9.60;99.90;;;;;;5074345;28;20170;-70
2024/03/31 04:58:47;;;;;;;4.83;3.20;;;9.60;99.90;;;;;;5073885;28;20198;-70
2024/03/31 05:01:13;;;;;;;6.07;3.47;;;9.40;99.90;;;;;;5074592;28;20178;-70
2024/03/31 05:03:39;;;;;;;10.43;2.97;;;9.40;99.90;;;;;;5074833;28;20505;-70
2024/03/31 05:06:04;;;;;;;4.00;2.30;;;9.50;99.90;;;;;;5074738;28;20744;-70
2024/03/31 05:08:30;;;;;;;4.87;2.37;;;9.50;99.90;;;;;;5074221;28;20162;-70
2024/03/31 05:11:00;;;;;;;2.60;2.40;;;9.40;99.90;;;;;;5074379;28;20158;-70
2024/03/31 05:13:29;;;;;;;3.10;2.40;;;9.50;99.90;;;;;;5074352;28;20540;-70
2024/03/31 05:16:01;;;;;;;3.23;2.00;;;9.50;99.90;;;;;;5074406;28;20775;-70
2024/03/31 05:18:27;;;;;;;3.77;2.67;;;9.50;99.90;;;;;;5074051;28;20809;-70
2024/03/31 05:21:06;;;;;;;5.93;2.40;;;9.60;99.90;;;;;;5074187;28;20451;-71
2024/03/31 05:23:33;;;;;;;3.53;2.63;;;9.60;99.90;;;;;;5074018;28;20603;-70
2024/03/31 05:26:01;;;;;;;3.90;2.40;;;9.60;99.90;;;;;;5074074;28;20396;-70
2024/03/31 05:28:28;;;;;;;2.73;2.50;;;9.60;99.90;;;;;;5055729;28;20408;-70
2024/03/31 05:30:54;;;;;;;6.00;2.60;;;9.60;99.90;;;;;;5074017;28;20783;-70
2024/03/31 05:33:19;;;;;;;4.33;2.43;;;9.60;99.90;;;;;;5073943;28;20408;-70
2024/03/31 05:35:46;;;;;;;4.90;2.20;;;9.50;99.90;;;;;;5073921;28;20171;-70
2024/03/31 05:38:13;;;;;;;5.90;2.57;;;9.40;99.90;;;;;;5073680;28;20255;-71
2024/03/31 05:40:42;;;;;;;5.90;2.10;;;9.40;99.90;;;;;;5073947;28;20436;-70
2024/03/31 05:43:08;;;;;;;3.70;2.30;;;9.40;99.90;;;;;;5073521;28;20858;-70
2024/03/31 05:45:34;;;;;;;3.73;2.30;;;9.40;99.90;;;;;;5073667;28;20412;-70
2024/03/31 05:48:01;;;;;;;3.43;2.30;;;9.40;99.90;;;;;;5073418;28;20166;-70
2024/03/31 05:50:26;;;;;;;13.30;2.40;;;9.40;99.90;;;;;;5055533;28;20428;-70
2024/03/31 05:52:52;;;;;;;8.40;2.50;;;9.40;99.90;;;;;;5073471;28;20435;-70
2024/03/31 05:55:17;;;;;;;9.63;3.23;;;9.50;99.90;;;;;;5055700;28;20174;-70
2024/03/31 05:57:43;;;;;;;3.37;2.30;;;9.50;99.90;;;;;;5073436;28;20162;-70
2024/03/31 06:00:09;;;;;;;9.00;3.03;;;9.50;99.90;;;;;;5073217;28;20225;-70
2024/03/31 06:02:34;;;;;;;3.60;2.13;;;9.50;99.90;;;;;;5073361;28;20172;-70
2024/03/31 06:05:00;;;;;;;5.83;2.80;;;9.40;99.90;;;;;;5055449;28;20902;-70
2024/03/31 06:07:26;;;;;;;5.90;2.30;;;9.40;99.90;;;;;;5073352;28;20162;-70
2024/03/31 06:09:51;;;;;;;2.40;2.10;;;9.30;99.90;;;;;;5073489;28;20261;-70
2024/03/31 06:12:17;;;;;;;4.60;2.30;;;9.40;99.90;;;;;;5073057;28;20755;-70
2024/03/31 06:14:42;;;;;;;10.97;2.40;;;9.40;99.90;;;;;;5073109;28;20162;-70
2024/03/31 06:17:08;;;;;;;8.90;3.30;;;9.60;99.90;;;;;;5072792;28;20360;-70
2024/03/31 06:19:33;;;;;;;9.93;2.50;;;10.00;99.90;;;;;;5055016;28;20213;-70
2024/03/31 06:21:59;;;;;;;3.27;2.67;;;10.70;99.90;;;;;;5072944;28;20558;-70
2024/03/31 06:24:24;;;;;;;11.23;2.10;;;11.20;99.90;;;;;;5054974;28;20194;-70
2024/03/31 06:26:50;;;;;;;10.13;2.87;;;12.00;99.90;;;;;;5072334;28;20162;-70
2024/03/31 06:29:15;;;;;;;8.77;2.30;;;12.80;99.90;;;;;;5072493;28;20190;-70
2024/03/31 06:31:41;;;;;;;4.73;1.93;;;13.50;99.90;;;;;;5072743;28;20204;-70
2024/03/31 06:34:06;;;;;;;4.43;2.13;;;14.10;99.90;;;;;;5072720;28;20261;-71
2024/03/31 06:36:32;;;;;;;4.60;1.63;;;14.90;99.90;;;;;;5072753;28;20276;-71
2024/03/31 06:38:57;;;;;;;5.63;3.20;;;15.20;99.90;;;;;;5071652;28;20190;-70
2024/03/31 06:41:23;;;;;;;6.80;2.10;;;15.50;99.90;;;;;;5072651;28;20189;-71
2024/03/31 06:43:48;;;;;;;6.00;2.00;;;16.20;99.90;;;;;;5072706;28;20380;-71
2024/03/31 06:46:14;;;;;;;8.37;2.13;;;16.10;99.90;;;;;;5072480;28;20249;-71
2024/03/31 06:48:39;;;;;;;2.10;1.77;;;15.70;99.90;;;;;;5071533;28;20166;-70
2024/03/31 06:51:05;;;;;;;9.93;2.27;;;15.50;99.90;;;;;;5072015;28;20162;-70
2024/03/31 06:53:30;;;;;;;8.43;2.10;;;14.80;99.90;;;;;;5072504;28;20176;-70
2024/03/31 06:55:56;;;;;;;5.23;2.10;;;14.50;99.90;;;;;;5072294;28;20173;-71
2024/03/31 06:58:22;;;;;;;3.63;2.30;;;14.30;99.90;;;;;;5071955;28;20167;-71
2024/03/31 07:00:47;;;;;;;5.50;2.50;;;14.00;99.90;;;;;;5072190;28;20178;-70
2024/03/31 07:03:13;;;;;;;3.87;3.13;;;14.00;99.90;;;;;;5072029;28;20271;-70
2024/03/31 07:05:38;;;;;;;5.03;2.07;;;14.00;99.90;;;;;;5072168;28;20162;-70
2024/03/31 07:08:04;;;;;;;5.97;4.20;;;14.00;99.90;;;;;;5071928;28;20163;-69
2024/03/31 07:10:29;;;;;;;6.10;2.20;;;14.00;99.90;;;;;;5072230;28;20182;-70
2024/03/31 07:12:55;;;;;;;4.83;1.80;;;14.10;99.90;;;;;;5072259;28;20166;-70
2024/03/31 07:15:21;;;;;;;6.50;2.23;;;14.10;99.90;;;;;;5071902;28;20248;-71
2024/03/31 07:17:48;;;;;;;9.17;3.03;;;13.80;99.90;;;;;;5071606;28;20678;-70
2024/03/31 07:20:13;;;;;;;5.57;2.70;;;13.60;99.90;;;;;;5071820;28;20186;-70
2024/03/31 07:22:40;;;;;;;7.30;1.87;;;13.60;99.90;;;;;;5072011;28;20935;-70
2024/03/31 07:25:05;;;;;;;8.27;2.50;;;13.60;99.90;;;;;;5071985;28;20429;-70
2024/03/31 07:27:31;;;;;;;6.70;2.20;;;13.50;99.90;;;;;;5071691;28;20491;-70
2024/03/31 07:29:57;;;;;;;4.60;2.00;;;13.40;99.90;;;;;;5071746;28;20439;-70
2024/03/31 07:32:22;;;;;;;2.77;2.10;;;13.30;99.90;;;;;;5071781;28;20166;-70
2024/03/31 07:34:48;;;;;;;4.10;2.10;;;13.40;99.90;;;;;;5071778;28;20163;-70
2024/03/31 07:37:13;;;;;;;10.80;2.30;;;13.40;99.90;;;;;;5071552;28;20170;-70
2024/03/31 07:39:39;;;;;;;4.07;2.20;;;13.60;99.90;;;;;;5071745;28;20684;-70
2024/03/31 07:42:04;;;;;;;7.23;2.30;;;13.90;99.90;;;;;;5071823;28;20181;-71
2024/03/31 07:44:30;;;;;;;2.43;2.20;;;14.20;99.90;;;;;;5071723;28;20205;-70
2024/03/31 07:46:55;;;;;;;2.90;2.07;;;14.60;99.90;;;;;;5071378;28;20169;-70
2024/03/31 07:49:21;;;;;;;10.60;3.00;;;15.00;99.90;;;;;;5070199;28;20183;-69
2024/03/31 07:51:46;;;;;;;6.00;3.07;;;15.80;99.90;;;;;;5052477;28;20300;-69
2024/03/31 07:54:12;;;;;;;12.90;2.20;;;16.90;99.90;;;;;;5051642;28;20163;-69
2024/03/31 07:56:37;;;;;;;8.53;2.93;;;17.90;99.90;;;;;;5051822;28;20167;-70
2024/03/31 07:59:03;;;;;;;11.30;2.50;;;18.50;99.90;;;;;;5051661;28;20195;-69
2024/03/31 08:01:28;;;;;;;11.93;2.60;;;19.10;99.90;;;;;;5055804;28;20166;-70
2024/03/31 08:03:54;;;;;;;9.40;1.60;;;20.10;99.90;;;;;;5037646;28;20247;-71
2024/03/31 08:06:19;;;;;;;9.00;2.10;;;21.00;99.90;;;;;;5055703;28;20163;-70
2024/03/31 08:08:45;;;;;;;5.40;2.20;;;21.90;99.90;;;;;;5055380;28;20665;-70
2024/03/31 08:11:10;;;;;;;6.67;1.77;;;22.90;99.90;;;;;;5055659;28;20163;-70
2024/03/31 08:13:36;;;;;;;5.03;1.70;;;23.70;95.70;;;;;;5055511;28;20250;-71
2024/03/31 08:16:02;;;;;;;2.40;1.60;;;24.40;91.50;;;;;;5055354;28;20159;-70
2024/03/31 08:18:28;;;;;;;6.33;2.17;;;25.00;84.70;;;;;;5055178;28;20163;-70
2024/03/31 08:20:54;;;;;;;8.10;2.07;;;25.40;73.60;;;;;;5055306;28;20178;-70
2024/03/31 08:23:19;;;;;;;4.33;1.63;;;25.70;70.90;;;;;;5037214;28;20959;-70
2024/03/31 08:25:54;;;;;;;6.20;2.23;;;26.00;68.00;;;;;;5055260;28;20171;-70
2024/03/31 08:28:19;;;;;;;4.50;2.13;;;25.80;62.40;;;;;;5055139;28;20266;-70
2024/03/31 08:30:47;;;;;;;6.93;1.87;;;26.50;62.20;;;;;;5054802;28;20496;-69
2024/03/31 08:33:12;;;;;;;3.30;1.80;;;27.10;61.70;;;;;;5055047;28;20176;-70
2024/03/31 08:35:38;;;;;;;8.53;2.20;;;27.90;56.10;;;;;;5055123;28;20405;-70
2024/03/31 08:38:04;;;;;;;9.53;2.20;;;28.60;55.10;;;;;;5054740;28;20541;-70
2024/03/31 08:40:31;;;;;;;5.23;2.60;;;28.90;52.70;;;;;;5054931;28;20187;-69
2024/03/31 08:43:05;;;;;;;5.90;1.77;;;29.00;49.90;;;;;;5054822;28;20862;-70
2024/03/31 08:45:31;;;;;;;2.63;2.40;;;29.10;48.50;;;;;;5054940;28;20405;-69
2024/03/31 08:47:59;;;;;;;11.20;2.27;;;29.70;47.30;;;;;;5054547;28;20737;-70
2024/03/31 08:50:25;;;;;;;7.13;2.00;;;30.20;47.40;;;;;;5054700;28;20409;-70
2024/03/31 08:52:54;;;;;;;4.90;2.70;;;30.70;44.60;;;;;;5053440;28;20433;-70
2024/03/31 08:55:20;;;;;;;2.20;1.70;;;31.30;43.90;;;;;;5053446;28;20408;-70
2024/03/31 08:57:46;;;;;;;4.67;2.30;;;31.90;42.10;;;;;;5053161;28;20421;-70
2024/03/31 09:00:12;;;;;;;5.63;2.70;;;32.90;41.10;;;;;;5053361;28;20540;-69
2024/03/31 09:02:38;;;;;;;3.87;1.77;;;32.60;37.30;;;;;;5053133;28;20838;-70
2024/03/31 09:05:04;;;;;;;2.10;1.50;;;32.70;37.40;;;;;;5053476;28;20437;-71
2024/03/31 09:07:32;;;;;;;6.53;2.47;;;32.90;36.80;;;;;;5052401;28;20253;-70
2024/03/31 09:09:58;;;;;;;7.80;2.50;;;33.00;35.90;;;;;;5052380;28;20787;-69
2024/03/31 09:12:24;;;;;;;3.43;2.00;;;32.80;35.90;;;;;;5053353;28;20394;-70
2024/03/31 09:14:49;;;;;;;5.10;2.50;;;32.70;36.20;;;;;;5053263;28;20179;-70
2024/03/31 09:17:15;;;;;;;2.60;1.97;;;32.90;34.80;;;;;;5052972;28;20416;-70
2024/03/31 09:19:41;;;;;;;4.30;1.80;;;32.90;34.70;;;;;;5053005;28;20191;-69
2024/03/31 09:22:07;;;;;;;4.67;2.03;;;33.10;34.50;;;;;;5053165;28;20664;-70
2024/03/31 09:24:33;;;;;;;4.77;2.17;;;33.50;34.40;;;;;;5052946;28;20281;-69
2024/03/31 09:27:00;;;;;;;1.80;1.70;;;34.20;34.20;;;;;;5034963;28;20906;-70
2024/03/31 09:29:26;;;;;;;6.10;3.20;;;35.30;34.10;;;;;;5053190;28;20418;-70
2024/03/31 09:32:06;;;;;;;4.67;2.37;;;35.40;31.70;;;;;;5052890;28;20442;-68
2024/03/31 09:34:31;;;;;;;4.40;2.00;;;36.30;31.20;;;;;;5053104;28;20792;-68
2024/03/31 09:36:57;;;;;;;5.70;2.27;;;36.40;31.60;;;;;;5052871;28;20547;-69
2024/03/31 09:39:23;;;;;;;6.17;2.97;;;35.70;30.10;;;;;;5052806;28;20210;-67
2024/03/31 09:41:53;;;;;;;3.63;2.93;;;35.50;31.20;;;;;;5052899;28;20640;-68
2024/03/31 09:44:19;;;;;;;6.07;1.50;;;35.80;30.70;;;;;;5052807;28;21031;-68
2024/03/31 09:46:46;;;;;;;2.50;2.00;;;35.50;30.30;;;;;;5052977;28;20543;-68
2024/03/31 09:49:13;;;;;;;3.53;1.67;;;34.00;29.80;;;;;;5052571;28;20924;-68
2024/03/31 09:51:41;;;;;;;7.83;1.80;;;33.80;31.50;;;;;;5015500;28;1069141;-70
2024/03/31 09:54:36;;;;;;;2.03;1.47;;;34.80;31.80;;;;;;5053688;28;20175;-68
2024/03/31 09:57:06;;;;;;;2.67;1.50;;;35.90;31.00;;;;;;5035563;28;20552;-71
2024/03/31 09:59:39;;;;;;;2.30;1.80;;;35.90;30.50;;;;;;5053565;28;20439;-68
2024/03/31 10:02:07;;;;;;;3.53;1.73;;;35.20;29.70;;;;;;5053431;28;20496;-67
2024/03/31 10:04:39;;;;;;;7.30;1.60;;;34.40;29.70;;;;;;5053445;28;20785;-68
2024/03/31 10:07:06;;;;;;;5.10;2.13;;;34.50;30.50;;;;;;5053587;28;20408;-68
2024/03/31 10:09:33;;;;;;;4.13;1.57;;;34.60;30.30;;;;;;5053561;28;20908;-68
2024/03/31 10:12:00;;;;;;;6.53;1.57;;;34.10;30.60;;;;;;5053313;28;20889;-68
2024/03/31 10:14:27;;;;;;;5.50;2.50;;;34.10;30.80;;;;;;5053218;28;20508;-68
2024/03/31 10:16:54;;;;;;;5.53;1.50;;;35.20;30.20;;;;;;5052932;28;20409;-68
2024/03/31 10:19:20;;;;;;;3.27;1.83;;;36.30;29.20;;;;;;5053172;28;20847;-68
2024/03/31 10:21:47;;;;;;;6.30;1.70;;;36.20;28.70;;;;;;5052370;28;20471;-68
2024/03/31 10:24:15;;;;;;;2.60;1.10;;;35.40;28.60;;;;;;5052973;28;20488;-69
2024/03/31 10:26:41;;;;;;;4.67;2.00;;;35.70;28.50;;;;;;5035122;28;20409;-68
2024/03/31 10:29:09;;;;;;;7.37;1.63;;;34.20;29.10;;;;;;5052594;28;20428;-68
2024/03/31 10:31:34;;;;;;;4.20;1.10;;;34.50;31.60;;;;;;5052750;28;20409;-69
2024/03/31 10:34:00;;;;;;;4.17;1.77;;;36.60;31.10;;;;;;5052926;28;20409;-69
2024/03/31 10:36:30;;;;;;;4.40;1.50;;;38.00;28.20;;;;;;5035140;28;20167;-69
2024/03/31 10:38:55;;;;;;;1.30;1.10;;;39.50;27.10;;;;;;5052323;28;20199;-67
2024/03/31 10:41:21;;;;;;;3.30;1.33;;;40.00;25.90;;;;;;5034923;28;20954;-68
2024/03/31 10:43:47;;;;;;;1.40;1.30;;;40.80;25.70;;;;;;5052497;28;20273;-69
2024/03/31 10:46:13;;;;;;;1.43;1.00;;;39.00;24.30;;;;;;5052614;28;20159;-68
2024/03/31 10:48:39;;;;;;;3.03;1.23;;;36.60;25.30;;;;;;5052199;28;20777;-68
2024/03/31 10:51:14;;;;;;;1.30;1.20;;;34.30;26.50;;;;;;5052464;28;20167;-68
2024/03/31 10:53:40;;;;;;;3.93;1.10;;;33.20;28.10;;;;;;5052561;28;20167;-68
2024/03/31 10:56:07;;;;;;;11.20;2.03;;;33.50;29.70;;;;;;5052347;28;20436;-68
2024/03/31 10:58:33;;;;;;;1.40;1.30;;;34.60;27.80;;;;;;5051637;28;20170;-68
2024/03/31 11:01:01;;;;;;;3.20;1.10;;;35.50;27.40;;;;;;5052301;28;20402;-68
2024/03/31 11:03:33;;;;;;;2.67;1.40;;;37.20;27.00;;;;;;5052199;28;20215;-68
2024/03/31 11:06:01;;;;;;;4.10;1.77;;;38.60;24.70;;;;;;5034317;28;20402;-69
2024/03/31 11:08:28;;;;;;;2.60;1.30;;;39.00;24.60;;;;;;5051539;28;20493;-69
2024/03/31 11:10:54;;;;;;;2.33;1.30;;;40.10;24.20;;;;;;5051955;28;20413;-68
2024/03/31 11:13:20;;;;;;;8.40;2.00;;;40.80;23.70;;;;;;5052168;28;20410;-68
2024/03/31 11:15:46;;;;;;;2.13;1.50;;;40.20;23.40;;;;;;5052095;28;20566;-68
2024/03/31 11:18:12;;;;;;;3.27;1.47;;;39.00;22.60;;;;;;5051751;28;20171;-68
2024/03/31 11:20:43;;;;;;;2.97;1.50;;;36.20;23.10;;;;;;5051866;28;20496;-68
2024/03/31 11:23:12;;;;;;;3.30;1.40;;;34.40;25.30;;;;;;5051989;28;20757;-69
2024/03/31 11:25:40;;;;;;;4.10;1.13;;;33.40;26.40;;;;;;5051170;28;20800;-68
2024/03/31 11:28:07;;;;;;;5.43;1.40;;;32.10;27.80;;;;;;5051635;28;20400;-68
2024/03/31 11:30:33;;;;;;;5.47;1.80;;;30.40;28.60;;;;;;5033885;28;20444;-68
2024/03/31 11:33:03;;;;;;;3.00;1.37;;;28.80;30.20;;;;;;5051619;28;20413;-68
2024/03/31 11:35:30;;;;;;;3.63;1.10;;;27.80;31.50;;;;;;5051772;28;20409;-67
2024/03/31 11:38:13;;;;;;;3.10;1.50;;;27.60;33.20;;;;;;5051468;28;20501;-69
2024/03/31 11:40:40;;;;;;;4.80;1.50;;;28.30;33.50;;;;;;5052092;28;20421;-68
2024/03/31 11:43:06;;;;;;;3.30;1.30;;;28.80;33.00;;;;;;5051851;28;20536;-68
2024/03/31 11:45:32;;;;;;;4.60;3.27;;;29.40;33.70;;;;;;5051755;28;20486;-68
2024/03/31 11:47:58;;;;;;;5.23;1.60;;;29.90;33.00;;;;;;5051558;28;20412;-68
2024/03/31 11:50:24;;;;;;;4.30;1.20;;;29.40;30.60;;;;;;5033665;28;20259;-68
2024/03/31 11:52:49;;;;;;;2.73;1.37;;;28.30;31.10;;;;;;5051500;28;20650;-68
2024/03/31 11:55:15;;;;;;;2.23;1.17;;;27.50;32.70;;;;;;5051774;28;20413;-69
2024/03/31 11:57:41;;;;;;;8.70;1.40;;;27.50;34.40;;;;;;5033512;28;20221;-68
2024/03/31 12:00:13;;;;;;;6.00;1.10;;;29.20;33.70;;;;;;5033697;28;20566;-69
2024/03/31 12:02:38;;;;;;;4.73;1.80;;;30.60;31.90;;;;;;5051400;28;20202;-69
2024/03/31 12:05:04;;;;;;;1.80;1.13;;;31.20;30.90;;;;;;5051497;28;20470;-68
2024/03/31 12:07:30;;;;;;;3.20;1.07;;;30.70;30.00;;;;;;5051262;28;20195;-68
2024/03/31 12:09:56;;;;;;;3.50;1.27;;;30.50;30.70;;;;;;5051365;28;20183;-68
2024/03/31 12:12:21;;;;;;;3.53;1.10;;;30.90;30.80;;;;;;5051427;28;20602;-68
2024/03/31 12:14:47;;;;;;;6.13;1.53;;;31.10;30.20;;;;;;5051674;28;20159;-68
2024/03/31 12:17:13;;;;;;;3.60;1.27;;;31.00;30.00;;;;;;5051203;28;20171;-68
2024/03/31 12:19:39;;;;;;;2.70;1.00;;;30.10;30.00;;;;;;5033443;28;20589;-68
2024/03/31 12:22:06;;;;;;;3.00;1.27;;;28.30;30.60;;;;;;5051394;28;20250;-69
2024/03/31 12:24:33;;;;;;;2.30;1.00;;;27.40;31.90;;;;;;5033569;28;20205;-68
2024/03/31 12:26:59;;;;;;;2.83;1.10;;;26.00;34.70;;;;;;5033166;28;20433;-69
2024/03/31 12:29:24;;;;;;;3.43;1.93;;;25.20;36.00;;;;;;5051288;28;20467;-69
2024/03/31 12:31:50;;;;;;;3.10;1.13;;;25.00;37.20;;;;;;5051370;28;20167;-69
2024/03/31 12:34:15;;;;;;;2.73;1.23;;;24.60;37.40;;;;;;5051163;28;20167;-68
2024/03/31 12:36:41;;;;;;;1.10;0.80;;;24.10;38.30;;;;;;5051162;28;20658;-68
2024/03/31 12:39:08;;;;;;;2.60;1.20;;;23.90;39.30;;;;;;5050939;28;20658;-68
2024/03/31 12:41:34;;;;;;;3.60;2.03;;;23.50;40.00;;;;;;5051104;28;20167;-68
2024/03/31 12:44:03;;;;;;;1.10;0.90;;;23.40;40.00;;;;;;5051018;28;21013;-69
2024/03/31 12:46:29;;;;;;;1.70;1.00;;;23.20;40.50;;;;;;5053548;28;20163;-68